Impacts TAF Board
For situational awareness. Not to be used for flight planning purposes.
IDs:

KSLC - Salt Lake City Intl, UT, US

Issued at 1120 UTC 21 Sep 2018
Updated at 1224 UTC 21 Sep 2018
Potential Impact None Slight Moderate High
Time1154Z 21/13Z 21/14Z 21/15Z 21/16Z 21/17Z 21/18Z 21/19Z 21/20Z 21/21Z 21/22Z 21/23Z 22/00Z 22/01Z>>
Type OBS PRVL PRVL PRVL PRVL PRVL PRVL PRVL PRVL PRVL PRVL PRVL PRVL PRVL
VIS 10 >6 >6 >6 >6 >6 >6 >6 >6 >6 >6 >6 >6 >6
CIG -- -- -- -- -- -- -- -- -- -- -- -- -- --
Cover CLR SKC SKC SKC SKC SKC SKC SKC SKC SKC SKC SKC SKC SKC
FltCat VFR VFR VFR VFR VFR VFR VFR VFR VFR VFR VFR VFR VFR VFR
WX -- -- -- -- -- -- -- -- -- -- -- -- -- --
WDir 120 120 120 120 120 120 120 320 320 320 320 320 320 320
WSpd 6 6 6 6 6 6 6 7 7 7 7 7 7 7
WGst -- -- -- -- -- -- -- -- -- -- -- -- -- --
Raw TAF
KSLC 211120Z 2112/2218 12006KT P6SM SKC
  FM211900 32007KT P6SM SKC
  FM220300 15006KT P6SM SKC


Raw METAR
KSLC 211154Z 12006KT 10SM CLR 11/M03 A3019 RMK AO2 SLP187 T01111033 10150 20106 51010
KSLC 211054Z 00000KT 10SM CLR 12/M04 A3018 RMK AO2 SLP184 T01221039
KSLC 210954Z 14008KT 10SM CLR 13/M03 A3016 RMK AO2 SLP177 T01281033

METAR Board
Radar Display
Forecast Discussion
For situational awareness. Not to be used for flight planning purposes.